Timeline UpdatesTrip UpdatesNews PostsPvt PostsTravel TipsAdmin PostsConv PostsFollowed PostsChat RequestsBlog PostsPNR Posts

Disclaimer
Search
 
 
Mon Sep 22, 2014 01:41:08 ISTHomeTrainsΣChainsAtlasPNRForumGalleryNewsFAQTripsMembersLoginFeedback
No Recent News for this Train
Other Trains in the News **new
Latest...
.
Thu Jan 03, 2013 (07:52PM)
⇐ Return Journey: Train# 12137

12138/Punjab Mail

Time-Table HAS CHANGED.
Sep 18 (9:28PM)
Change Departure Station:
Change Arrival Station:
Post a Train Travel TipPost a Train Travel Tip **new
Post a Comment/Question/Picture/VideoPost a Comment/Question/Picture/Video
Inaugural Run
Sat Jun 01, 1912
Pantry/Catering
✓ Pantry Car Avbl
✓ Catering Avbl
RSA - Rake Sharing
No RSA.
Rake/Coach Composition
Loco-SLR(Ladies+ RMS)-GEN (Military)-HA1-A1-AB1-B1-B2-B3-B4-B5-S1-PC-S2-S3-S4-S5-S6-S7-S8-S9-S10-GEN-GEN-SLR
Loco
FZR-NDLS=> BGKT WDP-4/4B; NDLS-IGP=> GZB WAP-4/7; IGP-CSTM=> KYN WCAM-3.
News    PNR    Forum    Time-Table    Availability    Fare Chart    Map    Arr/Dep History    Trips    Gallery    ΣChains    X/O    Timeline    
Travel Time: 13h 28m    15 halts    Distance: 767 km    Avg Speed: 56 km/hr
Type: SuperFast
Zone: CR/Central
Departs @ 18:07
Platform# 2
SMTWTFS
Hoshangabad/HBD 
Arrives @ 07:35 +1 night
Platform# 14
SMTWTFS
Mumbai CST/CSTM 

15 halts. 15 intermediate Stations between Hoshangabad and Mumbai CST

Show ALL intermediate Stations  Show Old Time-Table

#CodeStation NameX/OArrivesAvgDepartsAvgHaltPFDay#KmSpeedElevZoneAddress
1FZRFirozpur Cantt. Junction (5)  -21:40-11-1164.079200mNRFirozpur Cantt 152001, Punjab
2FDKFaridkot (3)X  22:05-22:07-2m11-1131.051202mNRFaridkot, Punjab
3KKPKot Kapura Junction (3)  22:21-22:23-2m11-1119.0680mNRKotkapura, Punjab
4GJUTGangsar Jaitu (3)  22:38-22:40-2m11-1102.060207mNRJaitu, Punjab
5GNAGoneana Bhai Jagta (3)  22:54-22:56-2m11-1088.025206mNRGoniana, Punjab
6BTIBathinda Junction (6)X  23:25-23:35-10m41-1076.080208mNRBathinda, Punjab
7MAURMaur  00:02-00:04-2m12-1040.072220mNRMaur Mandi, Punjab
8MSZMansa  00:19-00:21-2m12-1022.069222mNRMansa, Punjab
9BLZBudhlada  00:35-00:37-2m12-1006.074223mNRBudhlada, Punjab
10BRZBaretaX  00:50-00:52-2m12-990.052223mNRBareta, Punjab
11JHLJakhal Junction  01:08-01:10-2m--2-976.056225mNRJakhal, Haryana
12TUNTohana (2)  01:24-01:26-2m12-963.079232mNRTohana, Haryana
13NRWNarwana Junction (4)X  01:45-01:47-2m--2-938.062235mNRWay to Narwana, Haryana
14JINDJind Junction (3)  02:21 02:20-02:23-2 3m--2-904.070222mNR126102., Haryana
15ROKRohtak Junction (3)  03:12-03:14-2m--2-847.080220mNRRohtak, Haryana
16BGZBahadurgarh  03:44-03:46-2m--2-807.048220mNRBahadurgarh, Haryana
17SSBShakur Basti  04:11-04:13-2m--2-787.035216mNRPitampura, Delhi NCT
18DKZDelhi KishanGanj (2)  04:25-04:27-2m12-780.010220mNRSarai Rohilla, Delhi NCT
19NDLSNew Delhi (16)04:50-05:15-25m32-776.058215mNRNew Delhi, Delhi NCT
20FDBFaridabad (4)  05:44-05:46-2m32-748.061206mNRold Faridabad, Haryana
21KSVKosi Kalan (3)  06:57-06:59-2m12-676.065189mNCRKosi Kalan, Uttar Pradesh
22MTJMathura Junction (10)  07:37-07:40-3m12-635.073179mNCRMathura, Uttar Pradesh
23RKMRaja Ki Mandi (4)  08:21-08:23-2m22-585.09170mNCRAgra, Uttar Pradesh
24AGCAgra Cantt. (6)X  08:50-08:55-5m12-581.091174mNCRAgra, Uttar Pradesh
25DHODholpur Junction (3)  09:30-09:32-2m22-528.068177mNCRDholpur, Rajasthan
26MRAMorena (3)  09:55-09:57-2m12-502.075176mNCRMorena, Madhya Pradesh
27GWLGwalior Junction (4)X  10:28-10:33-5m12-463.063214mNCRGwalior, Madhya Pradesh
28DBADabra (3)  11:13-11:15-2m12-421.069 NCRDabra(District-Gwalior), Madhya Pradesh
29DAADatia (2)X  11:42-11:44-2m12-390.037264mNCRDatia, Madhya Pradesh
30JHSJhansi Junction (7)  12:25-12:33 12:35-8 10m32-365.065259mNCRJhansi, Uttar Pradesh
31BABBabina (3)  12:58-13:00-2m12-340.087285mNCRBabina, Uttar Pradesh
32LARLalitpur (3)X  13:45-13:47-2m12-275.065373mNCRLalitpur, Uttar Pradesh
33BINABina Junction (5)  14:45-14:50-5m22-212.084414mWCRJn Pt - KATNI/GUNA/ BPL/JHS, Madhya Pradesh
34BAQGanj Basoda (4)  15:22 15:23-15:24 15:25-2m22-166.087 WCRVidisha, Madhya Pradesh
35BHSVidisha (3)  15:52-15:54-2m22-127.058 WCRVidisha, Madhya Pradesh
36BPLBhopal Junction (6)  16:50-16:55-5m12-73.036497mWCRBhopal, Madhya Pradesh
37HBJBhopal HabibGanj (5)X  17:05-17:07-2m42-67.069496mWCRHabibGanj, Madhya Pradesh
38HBDHoshangabad (2)»  18:05-18:07-2m220.039308mWCRHoshangabad, Madhya Pradesh
39ETItarsi Junction (7)  18:35-18:40-5m4218.082329mWCRItarsi 461111, Madhya Pradesh
40BPFBanapura (2)  19:04-19:06-2m1251.083314mWCRBanapura, Madhya Pradesh
41HDHarda (3)  19:37-19:39-2m1294.074289mWCRHarda, Madhya Pradesh
42KKNKhirkiya (2)  20:04-20:06-2m12125.049281mWCRSH 15, Madhya Pradesh
43KNWKhandwa Junction (5)  21:40-21:45-5m22201.086310mCRKhandwa, Madhya Pradesh
44BAUBurhanpur (2)  22:33-22:35-2m12270.066269mCRBurhanpur, Madhya Pradesh
45BSLBhusaval Junction (8)  23:25-23:35-10m32325.060208mCRBhusaval 425201, Maharashtra
46JLJalgaon Junction (4)  23:59-00:01-2m22349.095213mCRJalgaon 425001, Maharashtra
47CSNChalisgaon Junction (3)  00:59-01:01-2m13441.083352mCRChalisgaon 424101, Maharashtra
48MMRManmad Junction (6)  01:50-01:55-5m33509.088580mCRManmad 423104, Maharashtra
49NKNasik Road (3)  02:45-02:50-5m33582.038563mCRNashik 422101, Maharashtra
50DVLDevlali (3)  02:58-03:00-2m23587.032561mCRDist. Nashik 422401, Maharashtra
51IGPIgatpuri (4)04:25-04:30-5m33632.045589mCRIgatpuri 422403, Maharashtra
52KYNKalyan Junction (8)  06:20-06:25-5m53714.07110mCRKalyan 421301, Maharashtra
53DRMumbai Dadar Central (8)  07:10 07:02-07:15 07:05-5 3m63758.0187mCRMumbai 400014, Maharashtra
54CSTMMumbai CST (18)•  07:35--143767.0-10mCRMumbai 400001, Maharashtra
Scroll to Top
Scroll to Bottom